EGNC/CAX METAR and TAF weather

Enter ICAO airport designator
Station Type Date Time Source
EGNC METAR 2019/08/19 16:50 UTC NOAA

EGNC 191650Z 25018KT 220V280 9999 SCT030 16/10 Q1010


Station Type Date Time Source
EGNC Decoded METAR 2019/08/19 16:50 UTC NOAA

Carlisle, United Kingdom (EGNC) 54-56N 002-57W
Aug 19, 2019 - 12:50 PM EDT / 2019.08.19 1650 UTC
Wind: from the WSW (250 degrees) at 21 MPH (18 KT) (direction variable):0
Visibility: greater than 7 mile(s):0
Sky conditions: partly cloudy
Temperature: 60 F (16 C)
Dew Point: 50 F (10 C)
Relative Humidity: 67%
Pressure (altimeter): 29.83 in. Hg (1010 hPa)
ob: EGNC 191650Z 25018KT 220V280 9999 SCT030 16/10 Q1010
cycle: 17

Station Type Date Time Source
EGNC TAF UTC NOAA

Error!

Example: see airport list